• Join FlightAware (Why Join?)
  • Login
  • US Flag 
10:22AM EDT


 

Airport Tracker/Info


-or-


 

Live Flight TrackerFlight Track Log ✈ CSN6816 ✈ 25-Jan-2014 ✈ ZWTN / HTN - ZWWW / URC

Flight Track Log - Related Links

Times and Time Zones

All times are in EST time to prevent confusion due to time zone crossing. See the CSN6816 flight status page for this flight to view local times or setup timezone preferences in your user account.

Time Position Orientation Groundspeed Altitude Reporting Facility
EST Latitude Longitude Course Direction KTS MPH feet Rate Location/Type
01:34AM 37.8157 80.6278 38° Northeast  Level Estimated
01:35AM 37.9018 80.7136 38° Northeast  Level Estimated
01:36AM 37.9878 80.7995 38° Northeast  Level Estimated
01:37AM 38.0737 80.8857 38° Northeast  Level Estimated
01:38AM 38.1595 80.9720 38° Northeast  Level Estimated
01:39AM 38.2453 81.0586 38° Northeast  Level Estimated
01:40AM 38.3311 81.1453 38° Northeast  Level Estimated
01:41AM 38.4167 81.2323 38° Northeast  Level Estimated
01:42AM 38.5023 81.3195 39° Northeast  Level Estimated
01:43AM 38.5879 81.4069 39° Northeast  Level Estimated
01:44AM 38.6734 81.4945 39° Northeast  Level Estimated
01:45AM 38.7588 81.5823 39° Northeast  Level Estimated
01:46AM 38.8441 81.6703 39° Northeast  Level Estimated
01:47AM 38.9294 81.7585 39° Northeast  Level Estimated
01:48AM 39.0146 81.8469 39° Northeast  Level Estimated
01:49AM 39.0998 81.9356 39° Northeast  Level Estimated
01:50AM 39.1848 82.0244 39° Northeast  Level Estimated
01:51AM 39.2699 82.1135 39° Northeast  Level Estimated
01:52AM 39.3548 82.2028 39° Northeast  Level Estimated
01:53AM 39.4397 82.2923 39° Northeast  Level Estimated
01:54AM 39.5245 82.3820 39° Northeast  Level Estimated
01:55AM 39.6092 82.4720 39° Northeast  Level Estimated
01:56AM 39.6939 82.5622 39° Northeast  Level Estimated
01:57AM 39.7785 82.6525 39° Northeast  Level Estimated
01:58AM 39.8630 82.7432 39° Northeast  Level Estimated
01:59AM 39.9475 82.8340 39° Northeast  Level Estimated
02:00AM 40.0319 82.9251 40° Northeast  Level Estimated
02:01AM 40.1162 83.0163 40° Northeast  Level Estimated
02:02AM 40.2004 83.1079 40° Northeast  Level Estimated
02:03AM 40.2846 83.1996 40° Northeast  Level Estimated
02:04AM 40.3687 83.2916 40° Northeast  Level Estimated
02:05AM 40.4527 83.3838 40° Northeast  Level Estimated
02:06AM 40.5367 83.4762 40° Northeast  Level Estimated
02:07AM 40.6205 83.5689 40° Northeast  Level Estimated
02:08AM 40.7043 83.6618 40° Northeast  Level Estimated
02:09AM 40.7881 83.7549 40° Northeast  Level Estimated
02:10AM 40.8717 83.8482 40° Northeast  Level Estimated
02:11AM 40.9553 83.9418 40° Northeast  Level Estimated
02:12AM 41.0388 84.0357 40° Northeast  Level Estimated
02:13AM 41.1222 84.1298 40° Northeast  Level Estimated
02:14AM 41.2056 84.2241 40° Northeast  Level Estimated
02:15AM 41.2888 84.3186 40° Northeast  Level Estimated
02:16AM 41.3720 84.4134 41° Northeast  Level Estimated
02:17AM 41.4551 84.5085 41° Northeast  Level Estimated
02:18AM 41.5382 84.6037 41° Northeast  Level Estimated
02:19AM 41.6211 84.6993 41° Northeast  Level Estimated
02:20AM 41.7040 84.7950 41° Northeast  Level Estimated
02:21AM 41.7868 84.8911 41° Northeast  Level Estimated
02:22AM 41.8695 84.9873 41° Northeast  Level Estimated
02:23AM 41.9522 85.0838 41° Northeast  Level Estimated
02:24AM 42.0347 85.1806 41° Northeast  Level Estimated
02:25AM 42.1172 85.2776 41° Northeast  Level Estimated
02:26AM 42.1996 85.3749 41° Northeast  Level Estimated
02:27AM 42.2819 85.4724 41° Northeast  Level Estimated
02:28AM 42.3641 85.5702 41° Northeast  Level Estimated
02:29AM 42.4463 85.6683 41° Northeast  Level Estimated
02:30AM 42.5283 85.7665 41° Northeast  Level Estimated
02:31AM 42.6103 85.8651 41° Northeast  Level Estimated
02:32AM 42.6922 85.9639 42° Northeast  Level Estimated
02:33AM 42.7740 86.0630 42° Northeast  Level Estimated
02:34AM 42.8557 86.1623 42° Northeast  Level Estimated
02:35AM 42.9374 86.2619 42° Northeast  Level Estimated
02:36AM 43.0189 86.3618 42° Northeast  Level Estimated
02:37AM 43.1004 86.4619 42° Northeast  Level Estimated
02:38AM 43.1818 86.5623 42° Northeast  Level Estimated
02:39AM 43.2630 86.6630 42° Northeast  Level Estimated
02:40AM 43.3442 86.7639 42° Northeast  Level Estimated
02:41AM 43.4254 86.8651 42° Northeast  Level Estimated
02:42AM 43.5064 86.9666 42° Northeast  Level Estimated
02:43AM 43.5873 87.0683 42° Northeast  Level Estimated
02:44AM 43.6681 87.1703 42° Northeast  Level Estimated
02:45AM 43.7489 87.2727 42° Northeast  Level Estimated
02:46AM 43.8295 87.3752 43° Northeast  Level Estimated
02:47AM 43.9071 87.4742 43° Northeast  Level Estimated
02:48AM 43.9071 87.4742 144° Southeast  Level Estimated
02:49AM 43.9071 87.4742 144° Southeast  Level Estimated
02:50AM 43.9071 87.4742 144° Southeast  Level Estimated
02:51AM 43.9071 87.4742 144° Southeast  Level Estimated
02:52AM 43.9071 87.4742 144° Southeast  Level Estimated
02:53AM 43.9071 87.4742 144° Southeast  Level Estimated
02:54AM 43.9071 87.4742 144° Southeast  Level Estimated
02:55AM 43.9071 87.4742 144° Southeast  Level Estimated
02:56AM 43.9071 87.4742 144° Southeast  Level Estimated
02:57AM 43.9071 87.4742 144° Southeast  Level Estimated